Saint Louis, MO

1:08 PM CDT on September 01, 2015 (GMT -0500)
South County | | Change Station
CLOSE
Current Station
Personal Weather Station
Location: Affton, MO
Elevation: 480 ft
Nearby Weather Stations

Elev 480 ft 38.55 °N, 90.32 °W | Updated 4 seconds ago

Clear
Clear
87.6 °F
Feels Like 97 °F
N
0.0
Wind Variable Wind from West
Gusts 5.0 mph

Today
High -- | Low -- °F
--% Chance of Precip.
Yesterday
High -- | Low -- °F
Precip. -- in
6:30 AM 7:31 PM
Waning Gibbous, 87% visible
Pressure 30.04 in
Visibility 10.0 miles
Clouds Few 5000 ft
Heat Index 97 °F
Dew Point 74 °F
Humidity 65%
Rainfall 0.00 in
Snow Depth Not available.
UV 9 out of 12
Pollen 11.00 out of 12
Air Quality Not available.
Flu Activity Not available.
METAR KSTL 011751Z 14005KT 10SM FEW050 32/20 A3008 RMK AO2 SLP172 T03220200 10328 20239 58006
Pressure 30.04 in
Visibility 10.0 miles
Clouds Few 5000 ft
Heat Index 97 °F
Dew Point 74 °F
Humidity 65%
Rainfall 0.00 in
Snow Depth Not available.
UV 9 out of 12
Pollen 11.00 out of 12
Air Quality Not available.
Flu Activity Not available.
METAR KSTL 011751Z 14005KT 10SM FEW050 32/20 A3008 RMK AO2 SLP172 T03220200 10328 20239 58006

10-Day Weather Forecast

×

Almanac

Astronomy

Sep. 01, 2015 Rise Set
Actual Time
Civil Twilight
Nautical Twilight
Astronomical Twilight
Moon
Length of Visible Light
Length of Day
Tomorrow will be .
, % of the Moon is Illuminated

Today's Extremes

State Highs State Lows

Community

WunderPhotos

Upload Photos

1,851,588 photos uploaded!

WunderBlogs® & News

Nearby

Air Quality

  Air Quality AQ Index Pollutant
Not available.

Snow Depth

Station Depth Elevation

Earthquake Activity

City Distance Mag. Time & Date
Minimum magnitude displayed is 2.5.

Coastal Water Temperatures

Place Temperature

Stations

Nearby Weather Stations

Station Location Temp. Windchill Dew Point Humidity Wind Precip. Elev Updated Type